Eagle San Pedro — 9V9334 — position and weather

sailwx.info

Track history (hours):
 
Tides and Currents Weather Stations Pressure Air Temp Water Temp Dewpoint Dewpoint Depression Visibility Wind Speed Wind Dir Waves Ship Positions

Eagle San Pedro

Last reported at 2018-Jun-15 17:11 UTC. Time now 2018-Jun-19 00:59 UTC.
Position N 29°12' W 094°31'.

Length 274 m; draft 12.8 m.

Type: Tanker. MMSI: 566690000.

Date/timePositionNaut miles runAvg speedWind from/ knotsBaromVisibWave heightAir tempDewpointWater temp
2018-Jun-15 17:11N 29°12' W 094°31'211.6
2018-Jun-15 17:00N 29°14' W 094°33'710.8
2018-Jun-15 16:22N 29°19' W 094°38'411.9
2018-Jun-15 16:00N 29°21' W 094°43'9 9.0
2018-Jun-15 15:00N 29°27' W 094°51'4 9.2
2018-Jun-15 14:30N 29°31' W 094°53'5 9.2
2018-Jun-15 14:00N 29°35' W 094°56'4 8.8
2018-Jun-15 13:30N 29°39' W 094°58'4 7.4
2018-Jun-15 13:00N 29°42' W 095°00'3 5.7
2018-Jun-15 12:30N 29°44' W 095°03'  
2018-Jun-12 21:06N 29°44' W 095°07'0 1.0
2018-Jun-12 21:00N 29°44' W 095°07'2 4.8
2018-Jun-12 20:30N 29°46' W 095°05'4 7.3
2018-Jun-12 19:59N 29°44' W 095°02'4 7.9
2018-Jun-12 19:30N 29°41' W 094°59'510.6
2018-Jun-12 19:00N 29°36' W 094°57'611.9
2018-Jun-12 18:31N 29°31' W 094°53'612.1
2018-Jun-12 17:59N 29°25' W 094°50'612.4
2018-Jun-12 17:30N 29°21' W 094°46'714.0
2018-Jun-12 17:00N 29°19' W 094°38'4 8.7
2018-Jun-12 16:31N 29°16' W 094°34'3 6.9
2018-Jun-12 16:00N 29°14' W 094°31'3 6.7
2018-Jun-12 15:30N 29°12' W 094°28'3 6.5
2018-Jun-12 15:00N 29°10' W 094°25'4 8.9
2018-Jun-12 14:30N 29°07' W 094°28'5 8.5
2018-Jun-12 13:52N 29°06' W 094°34'0 0.4
2018-Jun-12 13:30N 29°06' W 094°34'0 0.0
2018-Jun-12 13:00N 29°06' W 094°34'0 0.0
2018-Jun-12 12:27N 29°06' W 094°34'0 0.0
2018-Jun-12 11:39N 29°06' W 094°34'0 0.1
2018-Jun-12 11:30N 29°06' W 094°34'0 0.0
2018-Jun-12 02:33N 29°06' W 094°34'0 0.0
2018-Jun-12 02:24N 29°06' W 094°34'0 0.0
2018-Jun-12 01:57N 29°06' W 094°34'0 0.0
2018-Jun-12 01:27N 29°06' W 094°34'0 0.0
2018-Jun-12 00:57N 29°06' W 094°34'0 0.0
2018-Jun-12 00:30N 29°06' W 094°34'0 0.0
2018-Jun-12 00:00N 29°06' W 094°34'0 0.0
2018-Jun-11 23:30N 29°06' W 094°34'0 0.0
2018-Jun-11 23:00N 29°06' W 094°34'0 0.0
2018-Jun-11 22:30N 29°06' W 094°34'0 0.0
2018-Jun-11 22:00N 29°06' W 094°34'0 0.0
2018-Jun-11 21:30N 29°06' W 094°34'0 0.0
2018-Jun-11 21:00N 29°06' W 094°34'0 0.0
2018-Jun-11 20:27N 29°06' W 094°34'0 0.1
2018-Jun-11 20:00N 29°06' W 094°34'0 0.0
2018-Jun-11 19:30N 29°06' W 094°34'0 0.0
2018-Jun-11 18:57N 29°06' W 094°34'0 0.0
2018-Jun-11 18:30N 29°06' W 094°34'0 0.1
2018-Jun-11 17:57N 29°06' W 094°34'0 0.0
2018-Jun-11 17:30N 29°06' W 094°34'0 0.0
2018-Jun-11 16:57N 29°06' W 094°34'0 0.0
2018-Jun-11 16:24N 29°06' W 094°34'0 0.0
2018-Jun-11 16:00N 29°06' W 094°34'0 0.0
2018-Jun-11 15:30N 29°06' W 094°34'0 0.0
2018-Jun-11 15:00N 29°06' W 094°34'0 0.0
2018-Jun-11 14:27N 29°06' W 094°34'0 0.1
2018-Jun-11 13:51N 29°06' W 094°34'0 0.1
2018-Jun-11 13:30N 29°06' W 094°34'0 0.0
2018-Jun-11 13:00N 29°06' W 094°34'0 0.0
2018-Jun-11 12:30N 29°06' W 094°34'0 0.0
2018-Jun-11 12:00N 29°06' W 094°34'0 0.0
2018-Jun-11 11:30N 29°06' W 094°34'0 0.1
2018-Jun-11 11:00N 29°06' W 094°34'0 0.1
2018-Jun-11 10:24N 29°06' W 094°34'0 0.0
2018-Jun-11 09:54N 29°06' W 094°34'0 0.1
2018-Jun-11 09:18N 29°06' W 094°34'0 0.2
2018-Jun-11 08:57N 29°06' W 094°34'0 0.0
2018-Jun-11 08:30N 29°06' W 094°34'0 0.0
2018-Jun-11 08:00N 29°06' W 094°34'0 0.0
2018-Jun-11 07:30N 29°06' W 094°34'0 0.0
2018-Jun-11 06:24N 29°06' W 094°34'0 0.0
2018-Jun-11 06:00N 29°06' W 094°34'0 0.0
2018-Jun-11 05:24N 29°06' W 094°34'0 0.0
2018-Jun-11 05:00N 29°06' W 094°34'0 0.0
2018-Jun-11 04:24N 29°06' W 094°34'0 0.0
2018-Jun-11 04:00N 29°06' W 094°34'0 0.0
2018-Jun-11 03:24N 29°06' W 094°34'0 0.0
2018-Jun-11 03:00N 29°06' W 094°34'0 0.0
2018-Jun-11 02:30N 29°06' W 094°34'0 0.0
2018-Jun-11 02:00N 29°06' W 094°34'0 0.0
2018-Jun-11 01:30N 29°06' W 094°34'0 0.0
2018-Jun-11 01:00N 29°06' W 094°34'0 0.0
2018-Jun-11 00:27N 29°06' W 094°34'0 0.0
2018-Jun-10 23:57N 29°06' W 094°34'0 0.0
2018-Jun-10 23:30N 29°06' W 094°34'0 0.0
2018-Jun-10 23:00N 29°06' W 094°34'0 0.0
2018-Jun-10 22:30N 29°06' W 094°34'0 0.0
2018-Jun-10 21:57N 29°06' W 094°34'0 0.0
2018-Jun-10 21:18N 29°06' W 094°34'0 0.0
2018-Jun-10 21:00N 29°06' W 094°34'0 0.0
2018-Jun-10 20:30N 29°06' W 094°34'0 0.0
2018-Jun-10 20:00N 29°06' W 094°34'0 0.0
2018-Jun-10 19:30N 29°06' W 094°34'0 0.0
2018-Jun-10 19:00N 29°06' W 094°34'0 0.0
2018-Jun-10 18:30N 29°06' W 094°34'0 0.0
2018-Jun-10 17:57N 29°06' W 094°34'0 0.0
2018-Jun-10 17:30N 29°06' W 094°34'0 0.0
2018-Jun-10 16:57N 29°06' W 094°34'0 0.0
2018-Jun-10 16:30N 29°06' W 094°34'0 0.0
2018-Jun-10 16:00N 29°06' W 094°34'0 0.0
2018-Jun-10 15:30N 29°06' W 094°34'0 0.0
2018-Jun-10 15:00N 29°06' W 094°34'0 0.0
2018-Jun-10 14:30N 29°06' W 094°34'0 0.0
2018-Jun-10 13:30N 29°06' W 094°34'0 0.0
2018-Jun-10 13:00N 29°06' W 094°34'0 0.0
2018-Jun-10 12:24N 29°06' W 094°34'0 0.0
2018-Jun-10 12:00N 29°06' W 094°34'0 0.0
2018-Jun-10 11:30N 29°06' W 094°34'0 0.0
2018-Jun-10 11:00N 29°06' W 094°34'0 0.0
2018-Jun-10 10:30N 29°06' W 094°34'0 0.0
2018-Jun-10 09:54N 29°06' W 094°34'0 0.0
2018-Jun-10 09:30N 29°06' W 094°34'0 0.0
2018-Jun-10 09:00N 29°06' W 094°34'0 0.0
2018-Jun-10 08:27N 29°06' W 094°34'0 0.0
2018-Jun-10 07:51N 29°06' W 094°34'0 0.0
2018-Jun-10 07:30N 29°06' W 094°34'0 0.0
2018-Jun-10 06:57N 29°06' W 094°34'0 0.0
2018-Jun-10 06:09N 29°06' W 094°34'0 0.0
2018-Jun-10 06:00N 29°06' W 094°34'0 0.0
2018-Jun-10 05:27N 29°06' W 094°34'0 0.0
2018-Jun-10 05:00N 29°06' W 094°34'0 0.0
2018-Jun-10 04:21N 29°06' W 094°34'0 0.0
2018-Jun-10 03:54N 29°06' W 094°34'0 0.0
2018-Jun-10 03:30N 29°06' W 094°34'0 0.0
2018-Jun-10 02:57N 29°06' W 094°34'0 0.0
2018-Jun-10 02:27N 29°06' W 094°34'0 0.0
2018-Jun-10 01:39N 29°06' W 094°34'2 0.3
2018-Jun-09 20:50N 29°06' W 094°33'49 7.4
2018-Jun-09 14:17N 29°21' W 093°40'4 9.3
2018-Jun-09 13:51N 29°25' W 093°42'0 0.2
2018-Jun-09 13:28N 29°25' W 093°42'0 0.0
2018-Jun-09 09:10N 29°25' W 093°42'0 0.0
2018-Jun-09 07:46N 29°25' W 093°42'0 0.1
2018-Jun-09 07:28N 29°25' W 093°41'0 0.2
2018-Jun-09 06:43N 29°25' W 093°42'0 0.0
2018-Jun-09 06:19N 29°25' W 093°42'0 0.0
2018-Jun-09 05:55N 29°25' W 093°42'0 0.0
2018-Jun-09 05:13N 29°25' W 093°42'0 0.0
2018-Jun-09 04:46N 29°25' W 093°42'0 0.0
2018-Jun-09 04:25N 29°25' W 093°42'0 0.0
2018-Jun-09 03:46N 29°25' W 093°42'0 0.0
2018-Jun-09 03:19N 29°25' W 093°42'0 0.0
2018-Jun-09 02:49N 29°25' W 093°42'0 0.0
2018-Jun-09 02:28N 29°25' W 093°42'0 0.0
2018-Jun-08 15:19N 29°25' W 093°42'0 0.0
2018-Jun-08 14:52N 29°25' W 093°42'0 0.0
2018-Jun-08 13:40N 29°25' W 093°42'0 0.0
2018-Jun-08 13:13N 29°25' W 093°42'0 0.0
2018-Jun-08 12:55N 29°25' W 093°42'0 0.0
2018-Jun-08 12:28N 29°25' W 093°42'0 0.0
2018-Jun-08 11:52N 29°25' W 093°42'0 0.0
2018-Jun-08 11:28N 29°25' W 093°42'0 0.0
2018-Jun-08 04:31N 29°25' W 093°42'0 0.0
2018-Jun-07 11:46N 29°25' W 093°42'0 0.0
2018-Jun-07 08:10N 29°25' W 093°42'0 0.0
2018-Jun-07 07:55N 29°25' W 093°42'0 0.0
2018-Jun-07 07:25N 29°25' W 093°42'0 0.0
2018-Jun-07 06:34N 29°25' W 093°42'0 0.0
2018-Jun-07 03:49N 29°25' W 093°42'0 0.1
2018-Jun-07 01:16N 29°25' W 093°41'1 4.9
2018-Jun-07 01:00N 29°26' W 093°40'510.1
2018-Jun-07 00:30N 29°31' W 093°42'612.8
2018-Jun-07 00:00N 29°35' W 093°47'713.2
2018-Jun-06 23:31N 29°41' W 093°50'510.0
2018-Jun-06 23:01N 29°45' W 093°53'4 8.1
2018-Jun-06 22:31N 29°48' W 093°57'3 6.9
2018-Jun-06 22:01N 29°51' W 093°57'3 5.2
2018-Jun-06 21:30N 29°53' W 093°55'3 6.7
2018-Jun-06 21:01N 29°56' W 093°52'3 5.9
2018-Jun-06 20:30N 29°59' W 093°52'3 5.4
2018-Jun-06 20:00N 29°59' W 093°56'3 5.3
2018-Jun-06 19:30N 30°01' W 093°58'2 3.1
2018-Jun-06 19:01N 30°01' W 093°60'0 0.1
2018-Jun-06 18:31N 30°01' W 093°60'0 0.0
2018-Jun-06 18:01N 30°01' W 093°60'0 0.0
2018-Jun-06 17:30N 30°01' W 093°60'0 0.0
2018-Jun-06 17:00N 30°01' W 093°60'0 0.0
2018-Jun-06 16:30N 30°01' W 093°60'0 0.0
2018-Jun-06 16:00N 30°01' W 093°60'0 0.0
2018-Jun-06 15:30N 30°01' W 093°60'0 0.0
2018-Jun-06 15:00N 30°01' W 093°60'0 0.0
2018-Jun-06 14:30N 30°01' W 093°60'0 0.0
2018-Jun-06 14:00N 30°01' W 093°60'0 0.0
2018-Jun-06 13:30N 30°01' W 093°60'0 0.0
2018-Jun-06 13:00N 30°01' W 093°60'0 0.0
2018-Jun-06 12:30N 30°01' W 093°60'0 0.0
2018-Jun-06 12:00N 30°01' W 093°60'0 0.0
2018-Jun-06 11:30N 30°01' W 093°60'0 0.0
2018-Jun-06 11:00N 30°01' W 093°60'0 0.0
2018-Jun-06 10:30N 30°01' W 093°60'0 0.0
2018-Jun-06 10:00N 30°01' W 093°60'0 0.0
2018-Jun-06 09:30N 30°01' W 093°60'0 0.0
2018-Jun-06 08:54N 30°01' W 093°60'0 0.0
2018-Jun-06 08:30N 30°01' W 093°60'0 0.0
2018-Jun-06 08:00N 30°01' W 093°60'0 0.0
2018-Jun-06 07:30N 30°01' W 093°60'0 0.0
2018-Jun-06 07:00N 30°01' W 093°60'0 0.0
2018-Jun-06 06:27N 30°01' W 093°60'0 0.0
2018-Jun-06 05:57N 30°01' W 093°60'0 0.0
2018-Jun-06 05:30N 30°01' W 093°60'0 0.0
2018-Jun-06 05:00N 30°01' W 093°60'0 0.0
2018-Jun-06 04:30N 30°01' W 093°60'0 0.0
2018-Jun-06 03:57N 30°01' W 093°60'0 0.0
2018-Jun-06 03:30N 30°01' W 093°60'0 0.0
2018-Jun-06 03:00N 30°01' W 093°60'0 0.0
2018-Jun-06 02:30N 30°01' W 093°60'0 0.0
2018-Jun-06 01:57N 30°01' W 093°60'0 0.0
2018-Jun-06 01:30N 30°01' W 093°60'0 0.0
2018-Jun-06 01:00N 30°01' W 093°60'0 0.0
2018-Jun-06 00:30N 30°01' W 093°60'0 0.0
2018-Jun-06 00:00N 30°01' W 093°60'0 0.0
2018-Jun-05 23:27N 30°01' W 093°60'0 0.0
2018-Jun-05 23:00N 30°01' W 093°60'0 0.0
2018-Jun-05 22:30N 30°01' W 093°60'0 0.0
2018-Jun-05 21:57N 30°01' W 093°60'0 0.0
2018-Jun-05 21:30N 30°01' W 093°60'0 0.0
2018-Jun-05 21:00N 30°01' W 093°60'0 0.0
2018-Jun-05 20:27N 30°01' W 093°60'0 0.0
2018-Jun-05 20:00N 30°01' W 093°60'0 0.0
2018-Jun-05 19:30N 30°01' W 093°60'0 0.0
2018-Jun-05 18:57N 30°01' W 093°60'0 0.0
2018-Jun-05 18:30N 30°01' W 093°60'0 0.0
2018-Jun-05 18:00N 30°01' W 093°60'0 0.0
2018-Jun-05 17:30N 30°01' W 093°60'  
Track history (hours):
 
Tides and Currents Weather Stations Pressure Air Temp Water Temp Dewpoint Dewpoint Depression Visibility Wind Speed Wind Dir Waves Ship Positions

Eagle San Pedro

Last reported at 2018-Jun-15 17:11 UTC. Time now 2018-Jun-19 00:59 UTC.
Position N 29°12' W 094°31'.

Length 274 m; draft 12.8 m.

Type: Tanker. MMSI: 566690000.

Date/timePositionNaut miles runAvg speedWind from/ knotsBaromVisibWave heightAir tempDewpointWater temp
2018-Jun-15 17:11N 29°12' W 094°31'211.6
2018-Jun-15 17:00N 29°14' W 094°33'710.8
2018-Jun-15 16:22N 29°19' W 094°38'411.9
2018-Jun-15 16:00N 29°21' W 094°43'9 9.0
2018-Jun-15 15:00N 29°27' W 094°51'4 9.2
2018-Jun-15 14:30N 29°31' W 094°53'5 9.2
2018-Jun-15 14:00N 29°35' W 094°56'4 8.8
2018-Jun-15 13:30N 29°39' W 094°58'4 7.4
2018-Jun-15 13:00N 29°42' W 095°00'3 5.7
2018-Jun-15 12:30N 29°44' W 095°03'  
2018-Jun-12 21:06N 29°44' W 095°07'0 1.0
2018-Jun-12 21:00N 29°44' W 095°07'2 4.8
2018-Jun-12 20:30N 29°46' W 095°05'4 7.3
2018-Jun-12 19:59N 29°44' W 095°02'4 7.9
2018-Jun-12 19:30N 29°41' W 094°59'510.6
2018-Jun-12 19:00N 29°36' W 094°57'611.9
2018-Jun-12 18:31N 29°31' W 094°53'612.1
2018-Jun-12 17:59N 29°25' W 094°50'612.4
2018-Jun-12 17:30N 29°21' W 094°46'714.0
2018-Jun-12 17:00N 29°19' W 094°38'4 8.7
2018-Jun-12 16:31N 29°16' W 094°34'3 6.9
2018-Jun-12 16:00N 29°14' W 094°31'3 6.7
2018-Jun-12 15:30N 29°12' W 094°28'3 6.5
2018-Jun-12 15:00N 29°10' W 094°25'4 8.9
2018-Jun-12 14:30N 29°07' W 094°28'5 8.5
2018-Jun-12 13:52N 29°06' W 094°34'0 0.4
2018-Jun-12 13:30N 29°06' W 094°34'0 0.0
2018-Jun-12 13:00N 29°06' W 094°34'0 0.0
2018-Jun-12 12:27N 29°06' W 094°34'0 0.0
2018-Jun-12 11:39N 29°06' W 094°34'0 0.1
2018-Jun-12 11:30N 29°06' W 094°34'0 0.0
2018-Jun-12 02:33N 29°06' W 094°34'0 0.0
2018-Jun-12 02:24N 29°06' W 094°34'0 0.0
2018-Jun-12 01:57N 29°06' W 094°34'0 0.0
2018-Jun-12 01:27N 29°06' W 094°34'0 0.0
2018-Jun-12 00:57N 29°06' W 094°34'0 0.0
2018-Jun-12 00:30N 29°06' W 094°34'0 0.0
2018-Jun-12 00:00N 29°06' W 094°34'0 0.0
2018-Jun-11 23:30N 29°06' W 094°34'0 0.0
2018-Jun-11 23:00N 29°06' W 094°34'0 0.0
2018-Jun-11 22:30N 29°06' W 094°34'0 0.0
2018-Jun-11 22:00N 29°06' W 094°34'0 0.0
2018-Jun-11 21:30N 29°06' W 094°34'0 0.0
2018-Jun-11 21:00N 29°06' W 094°34'0 0.0
2018-Jun-11 20:27N 29°06' W 094°34'0 0.1
2018-Jun-11 20:00N 29°06' W 094°34'0 0.0
2018-Jun-11 19:30N 29°06' W 094°34'0 0.0
2018-Jun-11 18:57N 29°06' W 094°34'0 0.0
2018-Jun-11 18:30N 29°06' W 094°34'0 0.1
2018-Jun-11 17:57N 29°06' W 094°34'0 0.0
2018-Jun-11 17:30N 29°06' W 094°34'0 0.0
2018-Jun-11 16:57N 29°06' W 094°34'0 0.0
2018-Jun-11 16:24N 29°06' W 094°34'0 0.0
2018-Jun-11 16:00N 29°06' W 094°34'0 0.0
2018-Jun-11 15:30N 29°06' W 094°34'0 0.0
2018-Jun-11 15:00N 29°06' W 094°34'0 0.0
2018-Jun-11 14:27N 29°06' W 094°34'0 0.1
2018-Jun-11 13:51N 29°06' W 094°34'0 0.1
2018-Jun-11 13:30N 29°06' W 094°34'0 0.0
2018-Jun-11 13:00N 29°06' W 094°34'0 0.0
2018-Jun-11 12:30N 29°06' W 094°34'0 0.0
2018-Jun-11 12:00N 29°06' W 094°34'0 0.0
2018-Jun-11 11:30N 29°06' W 094°34'0 0.1
2018-Jun-11 11:00N 29°06' W 094°34'0 0.1
2018-Jun-11 10:24N 29°06' W 094°34'0 0.0
2018-Jun-11 09:54N 29°06' W 094°34'0 0.1
2018-Jun-11 09:18N 29°06' W 094°34'0 0.2
2018-Jun-11 08:57N 29°06' W 094°34'0 0.0
2018-Jun-11 08:30N 29°06' W 094°34'0 0.0
2018-Jun-11 08:00N 29°06' W 094°34'0 0.0
2018-Jun-11 07:30N 29°06' W 094°34'0 0.0
2018-Jun-11 06:24N 29°06' W 094°34'0 0.0
2018-Jun-11 06:00N 29°06' W 094°34'0 0.0
2018-Jun-11 05:24N 29°06' W 094°34'0 0.0
2018-Jun-11 05:00N 29°06' W 094°34'0 0.0
2018-Jun-11 04:24N 29°06' W 094°34'0 0.0
2018-Jun-11 04:00N 29°06' W 094°34'0 0.0
2018-Jun-11 03:24N 29°06' W 094°34'0 0.0
2018-Jun-11 03:00N 29°06' W 094°34'0 0.0
2018-Jun-11 02:30N 29°06' W 094°34'0 0.0
2018-Jun-11 02:00N 29°06' W 094°34'0 0.0
2018-Jun-11 01:30N 29°06' W 094°34'0 0.0
2018-Jun-11 01:00N 29°06' W 094°34'0 0.0
2018-Jun-11 00:27N 29°06' W 094°34'0 0.0
2018-Jun-10 23:57N 29°06' W 094°34'0 0.0
2018-Jun-10 23:30N 29°06' W 094°34'0 0.0
2018-Jun-10 23:00N 29°06' W 094°34'0 0.0
2018-Jun-10 22:30N 29°06' W 094°34'0 0.0
2018-Jun-10 21:57N 29°06' W 094°34'0 0.0
2018-Jun-10 21:18N 29°06' W 094°34'0 0.0
2018-Jun-10 21:00N 29°06' W 094°34'0 0.0
2018-Jun-10 20:30N 29°06' W 094°34'0 0.0
2018-Jun-10 20:00N 29°06' W 094°34'0 0.0
2018-Jun-10 19:30N 29°06' W 094°34'0 0.0
2018-Jun-10 19:00N 29°06' W 094°34'0 0.0
2018-Jun-10 18:30N 29°06' W 094°34'0 0.0
2018-Jun-10 17:57N 29°06' W 094°34'0 0.0
2018-Jun-10 17:30N 29°06' W 094°34'0 0.0
2018-Jun-10 16:57N 29°06' W 094°34'0 0.0
2018-Jun-10 16:30N 29°06' W 094°34'0 0.0
2018-Jun-10 16:00N 29°06' W 094°34'0 0.0
2018-Jun-10 15:30N 29°06' W 094°34'0 0.0
2018-Jun-10 15:00N 29°06' W 094°34'0 0.0
2018-Jun-10 14:30N 29°06' W 094°34'0 0.0
2018-Jun-10 13:30N 29°06' W 094°34'0 0.0
2018-Jun-10 13:00N 29°06' W 094°34'0 0.0
2018-Jun-10 12:24N 29°06' W 094°34'0 0.0
2018-Jun-10 12:00N 29°06' W 094°34'0 0.0
2018-Jun-10 11:30N 29°06' W 094°34'0 0.0
2018-Jun-10 11:00N 29°06' W 094°34'0 0.0
2018-Jun-10 10:30N 29°06' W 094°34'0 0.0
2018-Jun-10 09:54N 29°06' W 094°34'0 0.0
2018-Jun-10 09:30N 29°06' W 094°34'0 0.0
2018-Jun-10 09:00N 29°06' W 094°34'0 0.0
2018-Jun-10 08:27N 29°06' W 094°34'0 0.0
2018-Jun-10 07:51N 29°06' W 094°34'0 0.0
2018-Jun-10 07:30N 29°06' W 094°34'0 0.0
2018-Jun-10 06:57N 29°06' W 094°34'0 0.0
2018-Jun-10 06:09N 29°06' W 094°34'0 0.0
2018-Jun-10 06:00N 29°06' W 094°34'0 0.0
2018-Jun-10 05:27N 29°06' W 094°34'0 0.0
2018-Jun-10 05:00N 29°06' W 094°34'0 0.0
2018-Jun-10 04:21N 29°06' W 094°34'0 0.0
2018-Jun-10 03:54N 29°06' W 094°34'0 0.0
2018-Jun-10 03:30N 29°06' W 094°34'0 0.0
2018-Jun-10 02:57N 29°06' W 094°34'0 0.0
2018-Jun-10 02:27N 29°06' W 094°34'0 0.0
2018-Jun-10 01:39N 29°06' W 094°34'2 0.3
2018-Jun-09 20:50N 29°06' W 094°33'49 7.4
2018-Jun-09 14:17N 29°21' W 093°40'4 9.3
2018-Jun-09 13:51N 29°25' W 093°42'0 0.2
2018-Jun-09 13:28N 29°25' W 093°42'0 0.0
2018-Jun-09 09:10N 29°25' W 093°42'0 0.0
2018-Jun-09 07:46N 29°25' W 093°42'0 0.1
2018-Jun-09 07:28N 29°25' W 093°41'0 0.2
2018-Jun-09 06:43N 29°25' W 093°42'0 0.0
2018-Jun-09 06:19N 29°25' W 093°42'0 0.0
2018-Jun-09 05:55N 29°25' W 093°42'0 0.0
2018-Jun-09 05:13N 29°25' W 093°42'0 0.0
2018-Jun-09 04:46N 29°25' W 093°42'0 0.0
2018-Jun-09 04:25N 29°25' W 093°42'0 0.0
2018-Jun-09 03:46N 29°25' W 093°42'0 0.0
2018-Jun-09 03:19N 29°25' W 093°42'0 0.0
2018-Jun-09 02:49N 29°25' W 093°42'0 0.0
2018-Jun-09 02:28N 29°25' W 093°42'0 0.0
2018-Jun-08 15:19N 29°25' W 093°42'0 0.0
2018-Jun-08 14:52N 29°25' W 093°42'0 0.0
2018-Jun-08 13:40N 29°25' W 093°42'0 0.0
2018-Jun-08 13:13N 29°25' W 093°42'0 0.0
2018-Jun-08 12:55N 29°25' W 093°42'0 0.0
2018-Jun-08 12:28N 29°25' W 093°42'0 0.0
2018-Jun-08 11:52N 29°25' W 093°42'0 0.0
2018-Jun-08 11:28N 29°25' W 093°42'0 0.0
2018-Jun-08 04:31N 29°25' W 093°42'0 0.0
2018-Jun-07 11:46N 29°25' W 093°42'0 0.0
2018-Jun-07 08:10N 29°25' W 093°42'0 0.0
2018-Jun-07 07:55N 29°25' W 093°42'0 0.0
2018-Jun-07 07:25N 29°25' W 093°42'0 0.0
2018-Jun-07 06:34N 29°25' W 093°42'0 0.0
2018-Jun-07 03:49N 29°25' W 093°42'0 0.1
2018-Jun-07 01:16N 29°25' W 093°41'1 4.9
2018-Jun-07 01:00N 29°26' W 093°40'510.1
2018-Jun-07 00:30N 29°31' W 093°42'612.8
2018-Jun-07 00:00N 29°35' W 093°47'713.2
2018-Jun-06 23:31N 29°41' W 093°50'510.0
2018-Jun-06 23:01N 29°45' W 093°53'4 8.1
2018-Jun-06 22:31N 29°48' W 093°57'3 6.9
2018-Jun-06 22:01N 29°51' W 093°57'3 5.2
2018-Jun-06 21:30N 29°53' W 093°55'3 6.7
2018-Jun-06 21:01N 29°56' W 093°52'3 5.9
2018-Jun-06 20:30N 29°59' W 093°52'3 5.4
2018-Jun-06 20:00N 29°59' W 093°56'3 5.3
2018-Jun-06 19:30N 30°01' W 093°58'2 3.1
2018-Jun-06 19:01N 30°01' W 093°60'0 0.1
2018-Jun-06 18:31N 30°01' W 093°60'0 0.0
2018-Jun-06 18:01N 30°01' W 093°60'0 0.0
2018-Jun-06 17:30N 30°01' W 093°60'0 0.0
2018-Jun-06 17:00N 30°01' W 093°60'0 0.0
2018-Jun-06 16:30N 30°01' W 093°60'0 0.0
2018-Jun-06 16:00N 30°01' W 093°60'0 0.0
2018-Jun-06 15:30N 30°01' W 093°60'0 0.0
2018-Jun-06 15:00N 30°01' W 093°60'0 0.0
2018-Jun-06 14:30N 30°01' W 093°60'0 0.0
2018-Jun-06 14:00N 30°01' W 093°60'0 0.0
2018-Jun-06 13:30N 30°01' W 093°60'0 0.0
2018-Jun-06 13:00N 30°01' W 093°60'0 0.0
2018-Jun-06 12:30N 30°01' W 093°60'0 0.0
2018-Jun-06 12:00N 30°01' W 093°60'0 0.0
2018-Jun-06 11:30N 30°01' W 093°60'0 0.0
2018-Jun-06 11:00N 30°01' W 093°60'0 0.0
2018-Jun-06 10:30N 30°01' W 093°60'0 0.0
2018-Jun-06 10:00N 30°01' W 093°60'0 0.0
2018-Jun-06 09:30N 30°01' W 093°60'0 0.0
2018-Jun-06 08:54N 30°01' W 093°60'0 0.0
2018-Jun-06 08:30N 30°01' W 093°60'0 0.0
2018-Jun-06 08:00N 30°01' W 093°60'0 0.0
2018-Jun-06 07:30N 30°01' W 093°60'0 0.0
2018-Jun-06 07:00N 30°01' W 093°60'0 0.0
2018-Jun-06 06:27N 30°01' W 093°60'0 0.0
2018-Jun-06 05:57N 30°01' W 093°60'0 0.0
2018-Jun-06 05:30N 30°01' W 093°60'0 0.0
2018-Jun-06 05:00N 30°01' W 093°60'0 0.0
2018-Jun-06 04:30N 30°01' W 093°60'0 0.0
2018-Jun-06 03:57N 30°01' W 093°60'0 0.0
2018-Jun-06 03:30N 30°01' W 093°60'0 0.0
2018-Jun-06 03:00N 30°01' W 093°60'0 0.0
2018-Jun-06 02:30N 30°01' W 093°60'0 0.0
2018-Jun-06 01:57N 30°01' W 093°60'0 0.0
2018-Jun-06 01:30N 30°01' W 093°60'0 0.0
2018-Jun-06 01:00N 30°01' W 093°60'0 0.0
2018-Jun-06 00:30N 30°01' W 093°60'0 0.0
2018-Jun-06 00:00N 30°01' W 093°60'0 0.0
2018-Jun-05 23:27N 30°01' W 093°60'0 0.0
2018-Jun-05 23:00N 30°01' W 093°60'0 0.0
2018-Jun-05 22:30N 30°01' W 093°60'0 0.0
2018-Jun-05 21:57N 30°01' W 093°60'0 0.0
2018-Jun-05 21:30N 30°01' W 093°60'0 0.0
2018-Jun-05 21:00N 30°01' W 093°60'0 0.0
2018-Jun-05 20:27N 30°01' W 093°60'0 0.0
2018-Jun-05 20:00N 30°01' W 093°60'0 0.0
2018-Jun-05 19:30N 30°01' W 093°60'0 0.0
2018-Jun-05 18:57N 30°01' W 093°60'0 0.0
2018-Jun-05 18:30N 30°01' W 093°60'0 0.0
2018-Jun-05 18:00N 30°01' W 093°60'0 0.0
2018-Jun-05 17:30N 30°01' W 093°60'  

Dump ship's entire track history